sensor_id;sensor_type;location;lat;lon;timestamp;P1;durP1;ratioP1;P2;durP2;ratioP2
22543;SDS011;11438;52.044;8.716;2022-08-19T00:00:24;6.95;;;3.38;;
22543;SDS011;11438;52.044;8.716;2022-08-19T00:02:50;4.95;;;3.13;;
22543;SDS011;11438;52.044;8.716;2022-08-19T00:05:15;6.05;;;3.17;;
22543;SDS011;11438;52.044;8.716;2022-08-19T00:07:42;4.57;;;3.00;;
22543;SDS011;11438;52.044;8.716;2022-08-19T00:10:08;4.25;;;2.67;;
22543;SDS011;11438;52.044;8.716;2022-08-19T00:12:36;5.00;;;3.05;;
22543;SDS011;11438;52.044;8.716;2022-08-19T00:15:06;5.22;;;3.45;;
22543;SDS011;11438;52.044;8.716;2022-08-19T00:17:36;6.75;;;3.13;;
22543;SDS011;11438;52.044;8.716;2022-08-19T00:20:03;4.35;;;3.55;;
22543;SDS011;11438;52.044;8.716;2022-08-19T00:22:28;7.32;;;3.45;;
22543;SDS011;11438;52.044;8.716;2022-08-19T00:24:54;4.78;;;3.53;;
22543;SDS011;11438;52.044;8.716;2022-08-19T00:27:19;4.28;;;3.28;;
22543;SDS011;11438;52.044;8.716;2022-08-19T00:29:45;4.78;;;3.40;;
22543;SDS011;11438;52.044;8.716;2022-08-19T00:32:10;4.30;;;3.17;;
22543;SDS011;11438;52.044;8.716;2022-08-19T00:34:37;3.95;;;3.00;;
22543;SDS011;11438;52.044;8.716;2022-08-19T00:37:02;3.50;;;2.55;;
22543;SDS011;11438;52.044;8.716;2022-08-19T00:39:28;2.70;;;2.40;;
22543;SDS011;11438;52.044;8.716;2022-08-19T00:41:53;5.93;;;2.58;;
22543;SDS011;11438;52.044;8.716;2022-08-19T00:44:22;3.65;;;2.55;;
22543;SDS011;11438;52.044;8.716;2022-08-19T00:46:53;6.30;;;3.70;;
22543;SDS011;11438;52.044;8.716;2022-08-19T00:49:34;4.38;;;2.67;;
22543;SDS011;11438;52.044;8.716;2022-08-19T00:52:04;5.15;;;3.05;;
22543;SDS011;11438;52.044;8.716;2022-08-19T00:54:33;4.25;;;3.03;;
22543;SDS011;11438;52.044;8.716;2022-08-19T00:57:02;4.90;;;3.22;;
22543;SDS011;11438;52.044;8.716;2022-08-19T00:59:32;4.18;;;3.20;;
22543;SDS011;11438;52.044;8.716;2022-08-19T01:02:01;6.32;;;2.75;;
22543;SDS011;11438;52.044;8.716;2022-08-19T01:04:27;4.95;;;2.60;;
22543;SDS011;11438;52.044;8.716;2022-08-19T01:06:52;5.15;;;2.55;;
22543;SDS011;11438;52.044;8.716;2022-08-19T01:09:18;3.58;;;3.05;;
22543;SDS011;11438;52.044;8.716;2022-08-19T01:11:44;5.43;;;3.35;;
22543;SDS011;11438;52.044;8.716;2022-08-19T01:14:10;5.28;;;3.60;;
22543;SDS011;11438;52.044;8.716;2022-08-19T01:16:37;6.30;;;3.65;;
22543;SDS011;11438;52.044;8.716;2022-08-19T01:19:09;6.13;;;3.78;;
22543;SDS011;11438;52.044;8.716;2022-08-19T01:22:06;5.55;;;3.13;;
22543;SDS011;11438;52.044;8.716;2022-08-19T01:24:46;5.20;;;3.58;;
22543;SDS011;11438;52.044;8.716;2022-08-19T01:27:12;5.65;;;3.70;;
22543;SDS011;11438;52.044;8.716;2022-08-19T01:29:39;6.20;;;3.88;;
22543;SDS011;11438;52.044;8.716;2022-08-19T01:32:06;5.22;;;3.42;;
22543;SDS011;11438;52.044;8.716;2022-08-19T01:34:33;5.00;;;3.22;;
22543;SDS011;11438;52.044;8.716;2022-08-19T01:36:59;4.75;;;3.17;;
22543;SDS011;11438;52.044;8.716;2022-08-19T01:39:30;6.55;;;4.30;;
22543;SDS011;11438;52.044;8.716;2022-08-19T01:41:55;6.85;;;4.32;;
22543;SDS011;11438;52.044;8.716;2022-08-19T01:44:21;7.97;;;4.30;;
22543;SDS011;11438;52.044;8.716;2022-08-19T01:46:49;8.02;;;4.55;;
22543;SDS011;11438;52.044;8.716;2022-08-19T01:49:16;7.43;;;4.68;;
22543;SDS011;11438;52.044;8.716;2022-08-19T01:51:44;8.05;;;4.35;;
22543;SDS011;11438;52.044;8.716;2022-08-19T01:54:11;7.22;;;4.13;;
22543;SDS011;11438;52.044;8.716;2022-08-19T01:56:38;6.38;;;3.95;;
22543;SDS011;11438;52.044;8.716;2022-08-19T01:59:04;6.18;;;3.95;;
22543;SDS011;11438;52.044;8.716;2022-08-19T02:01:36;5.20;;;3.40;;
22543;SDS011;11438;52.044;8.716;2022-08-19T02:04:02;6.32;;;4.10;;
22543;SDS011;11438;52.044;8.716;2022-08-19T02:06:28;5.88;;;4.20;;
22543;SDS011;11438;52.044;8.716;2022-08-19T02:08:54;7.88;;;4.70;;
22543;SDS011;11438;52.044;8.716;2022-08-19T02:11:22;6.53;;;4.50;;
22543;SDS011;11438;52.044;8.716;2022-08-19T02:13:53;6.38;;;4.28;;
22543;SDS011;11438;52.044;8.716;2022-08-19T02:16:19;6.30;;;4.18;;
22543;SDS011;11438;52.044;8.716;2022-08-19T02:18:46;5.13;;;4.00;;
22543;SDS011;11438;52.044;8.716;2022-08-19T02:21:13;7.20;;;4.57;;
22543;SDS011;11438;52.044;8.716;2022-08-19T02:23:42;6.10;;;4.05;;
22543;SDS011;11438;52.044;8.716;2022-08-19T02:26:08;8.00;;;4.85;;
22543;SDS011;11438;52.044;8.716;2022-08-19T02:28:34;7.07;;;4.53;;
22543;SDS011;11438;52.044;8.716;2022-08-19T02:31:01;5.78;;;3.88;;
22543;SDS011;11438;52.044;8.716;2022-08-19T02:33:28;5.65;;;3.95;;
22543;SDS011;11438;52.044;8.716;2022-08-19T02:35:54;6.30;;;4.57;;
22543;SDS011;11438;52.044;8.716;2022-08-19T02:38:19;6.22;;;4.30;;
22543;SDS011;11438;52.044;8.716;2022-08-19T02:40:52;6.00;;;4.50;;
22543;SDS011;11438;52.044;8.716;2022-08-19T02:43:38;6.43;;;4.50;;
22543;SDS011;11438;52.044;8.716;2022-08-19T02:46:12;6.40;;;4.60;;
22543;SDS011;11438;52.044;8.716;2022-08-19T02:48:53;6.07;;;4.30;;
22543;SDS011;11438;52.044;8.716;2022-08-19T02:51:28;6.05;;;4.32;;
22543;SDS011;11438;52.044;8.716;2022-08-19T02:53:56;5.03;;;3.83;;
22543;SDS011;11438;52.044;8.716;2022-08-19T02:56:22;5.93;;;3.95;;
22543;SDS011;11438;52.044;8.716;2022-08-19T02:58:51;5.90;;;4.70;;
22543;SDS011;11438;52.044;8.716;2022-08-19T03:01:21;8.20;;;5.03;;
22543;SDS011;11438;52.044;8.716;2022-08-19T03:03:51;6.57;;;4.03;;
22543;SDS011;11438;52.044;8.716;2022-08-19T03:06:17;6.50;;;4.32;;
22543;SDS011;11438;52.044;8.716;2022-08-19T03:08:45;7.20;;;4.57;;
22543;SDS011;11438;52.044;8.716;2022-08-19T03:11:22;7.20;;;4.72;;
22543;SDS011;11438;52.044;8.716;2022-08-19T03:13:50;7.15;;;5.03;;
22543;SDS011;11438;52.044;8.716;2022-08-19T03:16:17;6.90;;;5.05;;
22543;SDS011;11438;52.044;8.716;2022-08-19T03:18:43;7.78;;;5.45;;
22543;SDS011;11438;52.044;8.716;2022-08-19T03:21:09;7.18;;;5.05;;
22543;SDS011;11438;52.044;8.716;2022-08-19T03:23:39;7.85;;;5.78;;
22543;SDS011;11438;52.044;8.716;2022-08-19T03:26:05;7.50;;;5.10;;
22543;SDS011;11438;52.044;8.716;2022-08-19T03:28:31;7.85;;;4.72;;
22543;SDS011;11438;52.044;8.716;2022-08-19T03:30:58;5.00;;;4.32;;
22543;SDS011;11438;52.044;8.716;2022-08-19T03:33:29;7.38;;;4.50;;
22543;SDS011;11438;52.044;8.716;2022-08-19T03:36:17;6.38;;;5.00;;
22543;SDS011;11438;52.044;8.716;2022-08-19T03:38:51;9.10;;;4.82;;
22543;SDS011;11438;52.044;8.716;2022-08-19T03:41:20;6.43;;;4.47;;
22543;SDS011;11438;52.044;8.716;2022-08-19T03:43:47;6.55;;;4.50;;
22543;SDS011;11438;52.044;8.716;2022-08-19T03:46:15;6.38;;;5.18;;
22543;SDS011;11438;52.044;8.716;2022-08-19T03:48:42;8.52;;;4.60;;
22543;SDS011;11438;52.044;8.716;2022-08-19T03:51:19;5.10;;;4.25;;
22543;SDS011;11438;52.044;8.716;2022-08-19T03:53:50;7.88;;;5.20;;
22543;SDS011;11438;52.044;8.716;2022-08-19T03:56:16;9.18;;;6.50;;
22543;SDS011;11438;52.044;8.716;2022-08-19T03:58:41;9.48;;;6.47;;
22543;SDS011;11438;52.044;8.716;2022-08-19T04:01:11;9.85;;;6.45;;
22543;SDS011;11438;52.044;8.716;2022-08-19T04:03:40;7.38;;;5.78;;
22543;SDS011;11438;52.044;8.716;2022-08-19T04:06:16;8.10;;;6.03;;
22543;SDS011;11438;52.044;8.716;2022-08-19T04:08:46;7.18;;;5.57;;
22543;SDS011;11438;52.044;8.716;2022-08-19T04:11:15;7.78;;;5.47;;
22543;SDS011;11438;52.044;8.716;2022-08-19T04:13:48;9.05;;;6.05;;
22543;SDS011;11438;52.044;8.716;2022-08-19T04:16:16;7.07;;;5.25;;
22543;SDS011;11438;52.044;8.716;2022-08-19T04:18:42;8.48;;;5.60;;
22543;SDS011;11438;52.044;8.716;2022-08-19T04:21:08;9.80;;;6.00;;
22543;SDS011;11438;52.044;8.716;2022-08-19T04:23:39;8.80;;;6.63;;
22543;SDS011;11438;52.044;8.716;2022-08-19T04:26:05;8.77;;;5.93;;
22543;SDS011;11438;52.044;8.716;2022-08-19T04:28:31;9.15;;;6.53;;
22543;SDS011;11438;52.044;8.716;2022-08-19T04:30:56;7.03;;;5.30;;
22543;SDS011;11438;52.044;8.716;2022-08-19T04:33:23;10.75;;;6.30;;
22543;SDS011;11438;52.044;8.716;2022-08-19T04:35:51;8.55;;;5.47;;
22543;SDS011;11438;52.044;8.716;2022-08-19T04:38:19;7.63;;;5.57;;
22543;SDS011;11438;52.044;8.716;2022-08-19T04:40:50;10.48;;;5.95;;
22543;SDS011;11438;52.044;8.716;2022-08-19T04:43:36;8.18;;;5.95;;
22543;SDS011;11438;52.044;8.716;2022-08-19T04:46:11;9.65;;;6.63;;
22543;SDS011;11438;52.044;8.716;2022-08-19T04:48:38;7.30;;;5.47;;
22543;SDS011;11438;52.044;8.716;2022-08-19T04:51:08;8.00;;;5.95;;
22543;SDS011;11438;52.044;8.716;2022-08-19T04:53:37;7.35;;;5.72;;
22543;SDS011;11438;52.044;8.716;2022-08-19T04:56:06;8.65;;;5.47;;
22543;SDS011;11438;52.044;8.716;2022-08-19T04:58:36;9.30;;;5.50;;
22543;SDS011;11438;52.044;8.716;2022-08-19T05:01:03;6.78;;;5.13;;
22543;SDS011;11438;52.044;8.716;2022-08-19T05:03:29;9.23;;;6.25;;
22543;SDS011;11438;52.044;8.716;2022-08-19T05:05:59;8.00;;;5.28;;
22543;SDS011;11438;52.044;8.716;2022-08-19T05:08:32;9.75;;;6.72;;
22543;SDS011;11438;52.044;8.716;2022-08-19T05:10:58;7.63;;;6.22;;
22543;SDS011;11438;52.044;8.716;2022-08-19T05:13:24;8.57;;;6.00;;
22543;SDS011;11438;52.044;8.716;2022-08-19T05:15:57;9.07;;;6.85;;
22543;SDS011;11438;52.044;8.716;2022-08-19T05:18:24;10.02;;;7.32;;
22543;SDS011;11438;52.044;8.716;2022-08-19T05:21:09;11.90;;;7.32;;
22543;SDS011;11438;52.044;8.716;2022-08-19T05:23:55;8.45;;;6.28;;
22543;SDS011;11438;52.044;8.716;2022-08-19T05:26:20;9.55;;;7.05;;
22543;SDS011;11438;52.044;8.716;2022-08-19T05:28:46;10.75;;;7.97;;
22543;SDS011;11438;52.044;8.716;2022-08-19T05:31:11;12.52;;;8.13;;
22543;SDS011;11438;52.044;8.716;2022-08-19T05:33:37;10.07;;;7.38;;
22543;SDS011;11438;52.044;8.716;2022-08-19T05:36:04;9.40;;;6.55;;
22543;SDS011;11438;52.044;8.716;2022-08-19T05:38:32;11.75;;;7.70;;
22543;SDS011;11438;52.044;8.716;2022-08-19T05:40:58;8.98;;;6.72;;
22543;SDS011;11438;52.044;8.716;2022-08-19T05:43:23;10.38;;;7.43;;
22543;SDS011;11438;52.044;8.716;2022-08-19T05:45:50;10.20;;;7.22;;
22543;SDS011;11438;52.044;8.716;2022-08-19T05:48:15;9.55;;;7.55;;
22543;SDS011;11438;52.044;8.716;2022-08-19T05:50:42;11.00;;;7.13;;
22543;SDS011;11438;52.044;8.716;2022-08-19T05:53:10;11.52;;;7.55;;
22543;SDS011;11438;52.044;8.716;2022-08-19T05:55:35;12.30;;;8.65;;
22543;SDS011;11438;52.044;8.716;2022-08-19T05:58:03;12.50;;;7.50;;
22543;SDS011;11438;52.044;8.716;2022-08-19T06:00:30;10.95;;;7.93;;
22543;SDS011;11438;52.044;8.716;2022-08-19T06:02:56;13.98;;;7.88;;
22543;SDS011;11438;52.044;8.716;2022-08-19T06:05:24;9.52;;;6.57;;
22543;SDS011;11438;52.044;8.716;2022-08-19T06:07:50;8.82;;;5.85;;
22543;SDS011;11438;52.044;8.716;2022-08-19T06:10:15;7.18;;;5.40;;
22543;SDS011;11438;52.044;8.716;2022-08-19T06:12:41;9.98;;;6.45;;
22543;SDS011;11438;52.044;8.716;2022-08-19T06:15:07;7.50;;;6.05;;
22543;SDS011;11438;52.044;8.716;2022-08-19T06:17:36;9.55;;;6.22;;
22543;SDS011;11438;52.044;8.716;2022-08-19T06:20:07;7.15;;;5.13;;
22543;SDS011;11438;52.044;8.716;2022-08-19T06:22:42;8.00;;;5.00;;
22543;SDS011;11438;52.044;8.716;2022-08-19T06:25:09;8.98;;;5.53;;
22543;SDS011;11438;52.044;8.716;2022-08-19T06:27:36;7.40;;;5.57;;
22543;SDS011;11438;52.044;8.716;2022-08-19T06:30:03;6.13;;;5.15;;
22543;SDS011;11438;52.044;8.716;2022-08-19T06:32:29;7.63;;;4.75;;
22543;SDS011;11438;52.044;8.716;2022-08-19T06:34:55;5.82;;;4.30;;
22543;SDS011;11438;52.044;8.716;2022-08-19T06:37:21;5.05;;;3.47;;
22543;SDS011;11438;52.044;8.716;2022-08-19T06:39:47;4.65;;;3.45;;
22543;SDS011;11438;52.044;8.716;2022-08-19T06:42:13;4.35;;;2.90;;
22543;SDS011;11438;52.044;8.716;2022-08-19T06:44:41;5.50;;;3.22;;
22543;SDS011;11438;52.044;8.716;2022-08-19T06:47:08;5.53;;;3.20;;
22543;SDS011;11438;52.044;8.716;2022-08-19T06:49:36;5.15;;;3.08;;
22543;SDS011;11438;52.044;8.716;2022-08-19T06:52:02;3.85;;;2.88;;
22543;SDS011;11438;52.044;8.716;2022-08-19T06:54:28;5.45;;;2.80;;
22543;SDS011;11438;52.044;8.716;2022-08-19T06:56:54;3.60;;;2.72;;
22543;SDS011;11438;52.044;8.716;2022-08-19T06:59:21;5.03;;;3.05;;
22543;SDS011;11438;52.044;8.716;2022-08-19T07:01:53;5.05;;;3.00;;
22543;SDS011;11438;52.044;8.716;2022-08-19T07:04:24;3.83;;;2.70;;
22543;SDS011;11438;52.044;8.716;2022-08-19T07:06:59;4.18;;;2.92;;
22543;SDS011;11438;52.044;8.716;2022-08-19T07:09:27;3.75;;;2.50;;
22543;SDS011;11438;52.044;8.716;2022-08-19T07:11:53;3.85;;;3.00;;
22543;SDS011;11438;52.044;8.716;2022-08-19T07:14:23;4.97;;;3.05;;
22543;SDS011;11438;52.044;8.716;2022-08-19T07:16:52;2.97;;;2.17;;
22543;SDS011;11438;52.044;8.716;2022-08-19T07:19:20;4.63;;;3.13;;
22543;SDS011;11438;52.044;8.716;2022-08-19T07:21:48;4.78;;;2.95;;
22543;SDS011;11438;52.044;8.716;2022-08-19T07:24:17;4.22;;;2.70;;
22543;SDS011;11438;52.044;8.716;2022-08-19T07:26:44;6.90;;;3.35;;
22543;SDS011;11438;52.044;8.716;2022-08-19T07:29:11;4.93;;;2.90;;
22543;SDS011;11438;52.044;8.716;2022-08-19T07:31:37;5.45;;;3.17;;
22543;SDS011;11438;52.044;8.716;2022-08-19T07:34:03;5.47;;;3.58;;
22543;SDS011;11438;52.044;8.716;2022-08-19T07:36:34;5.57;;;3.58;;
22543;SDS011;11438;52.044;8.716;2022-08-19T07:39:07;4.35;;;3.40;;
22543;SDS011;11438;52.044;8.716;2022-08-19T07:41:35;7.57;;;3.80;;
22543;SDS011;11438;52.044;8.716;2022-08-19T07:44:02;4.72;;;3.10;;
22543;SDS011;11438;52.044;8.716;2022-08-19T07:46:32;5.60;;;3.42;;
22543;SDS011;11438;52.044;8.716;2022-08-19T07:48:59;5.25;;;3.53;;
22543;SDS011;11438;52.044;8.716;2022-08-19T07:51:25;5.10;;;3.40;;
22543;SDS011;11438;52.044;8.716;2022-08-19T07:53:52;6.50;;;3.65;;
22543;SDS011;11438;52.044;8.716;2022-08-19T07:56:18;4.43;;;3.38;;
22543;SDS011;11438;52.044;8.716;2022-08-19T07:58:45;4.28;;;3.55;;
22543;SDS011;11438;52.044;8.716;2022-08-19T08:01:13;6.13;;;3.65;;
22543;SDS011;11438;52.044;8.716;2022-08-19T08:03:44;4.68;;;3.45;;
22543;SDS011;11438;52.044;8.716;2022-08-19T08:06:29;3.67;;;3.28;;
22543;SDS011;11438;52.044;8.716;2022-08-19T08:09:13;5.00;;;3.00;;
22543;SDS011;11438;52.044;8.716;2022-08-19T08:11:50;4.90;;;3.10;;
22543;SDS011;11438;52.044;8.716;2022-08-19T08:14:17;3.70;;;3.05;;
22543;SDS011;11438;52.044;8.716;2022-08-19T08:16:53;5.47;;;3.58;;
22543;SDS011;11438;52.044;8.716;2022-08-19T08:19:22;5.22;;;3.25;;
22543;SDS011;11438;52.044;8.716;2022-08-19T08:21:48;4.85;;;3.70;;
22543;SDS011;11438;52.044;8.716;2022-08-19T08:24:15;9.02;;;3.60;;
22543;SDS011;11438;52.044;8.716;2022-08-19T08:26:41;4.30;;;3.72;;
22543;SDS011;11438;52.044;8.716;2022-08-19T08:29:08;4.35;;;3.63;;
22543;SDS011;11438;52.044;8.716;2022-08-19T08:31:35;4.68;;;3.67;;
22543;SDS011;11438;52.044;8.716;2022-08-19T08:34:01;4.47;;;3.95;;
22543;SDS011;11438;52.044;8.716;2022-08-19T08:36:27;4.90;;;3.60;;
22543;SDS011;11438;52.044;8.716;2022-08-19T08:38:53;6.40;;;4.05;;
22543;SDS011;11438;52.044;8.716;2022-08-19T08:41:25;5.50;;;3.40;;
22543;SDS011;11438;52.044;8.716;2022-08-19T08:43:53;4.72;;;3.10;;
22543;SDS011;11438;52.044;8.716;2022-08-19T08:51:59;5.90;;;3.85;;
22543;SDS011;11438;52.044;8.716;2022-08-19T08:54:30;4.50;;;3.05;;
22543;SDS011;11438;52.044;8.716;2022-08-19T08:57:02;4.68;;;3.20;;
22543;SDS011;11438;52.044;8.716;2022-08-19T08:59:34;6.07;;;3.38;;
22543;SDS011;11438;52.044;8.716;2022-08-19T09:02:01;4.28;;;3.38;;
22543;SDS011;11438;52.044;8.716;2022-08-19T09:04:27;4.68;;;3.03;;
22543;SDS011;11438;52.044;8.716;2022-08-19T09:09:47;4.15;;;2.75;;
22543;SDS011;11438;52.044;8.716;2022-08-19T09:12:24;5.25;;;2.80;;
22543;SDS011;11438;52.044;8.716;2022-08-19T09:14:56;2.83;;;2.40;;
22543;SDS011;11438;52.044;8.716;2022-08-19T09:17:33;3.70;;;2.63;;
22543;SDS011;11438;52.044;8.716;2022-08-19T09:20:04;3.40;;;2.30;;
22543;SDS011;11438;52.044;8.716;2022-08-19T09:22:36;2.63;;;2.03;;
22543;SDS011;11438;52.044;8.716;2022-08-19T09:25:04;3.00;;;2.10;;
22543;SDS011;11438;52.044;8.716;2022-08-19T09:27:31;3.05;;;2.22;;
22543;SDS011;11438;52.044;8.716;2022-08-19T09:29:56;3.50;;;2.13;;
22543;SDS011;11438;52.044;8.716;2022-08-19T09:32:22;2.35;;;2.15;;
22543;SDS011;11438;52.044;8.716;2022-08-19T09:34:49;3.80;;;2.10;;
22543;SDS011;11438;52.044;8.716;2022-08-19T09:37:14;3.65;;;1.75;;
22543;SDS011;11438;52.044;8.716;2022-08-19T09:39:40;2.47;;;2.03;;
22543;SDS011;11438;52.044;8.716;2022-08-19T09:42:06;2.70;;;2.38;;
22543;SDS011;11438;52.044;8.716;2022-08-19T09:44:37;2.60;;;2.13;;
22543;SDS011;11438;52.044;8.716;2022-08-19T09:47:03;3.25;;;2.22;;
22543;SDS011;11438;52.044;8.716;2022-08-19T09:49:29;3.15;;;2.50;;
22543;SDS011;11438;52.044;8.716;2022-08-19T09:51:56;3.17;;;2.45;;
22543;SDS011;11438;52.044;8.716;2022-08-19T09:54:21;3.72;;;2.65;;
22543;SDS011;11438;52.044;8.716;2022-08-19T09:56:48;2.30;;;2.10;;
22543;SDS011;11438;52.044;8.716;2022-08-19T09:59:13;2.30;;;1.88;;
22543;SDS011;11438;52.044;8.716;2022-08-19T10:01:39;4.43;;;2.10;;
22543;SDS011;11438;52.044;8.716;2022-08-19T10:04:05;1.83;;;1.50;;
22543;SDS011;11438;52.044;8.716;2022-08-19T10:06:34;2.33;;;1.65;;
22543;SDS011;11438;52.044;8.716;2022-08-19T10:09:02;2.85;;;2.05;;
22543;SDS011;11438;52.044;8.716;2022-08-19T10:11:31;2.92;;;2.00;;
22543;SDS011;11438;52.044;8.716;2022-08-19T10:13:58;3.88;;;1.85;;
22543;SDS011;11438;52.044;8.716;2022-08-19T10:16:24;3.58;;;1.92;;
22543;SDS011;11438;52.044;8.716;2022-08-19T10:18:50;2.53;;;1.92;;
22543;SDS011;11438;52.044;8.716;2022-08-19T10:21:21;2.65;;;1.83;;
22543;SDS011;11438;52.044;8.716;2022-08-19T10:23:49;2.45;;;1.88;;
22543;SDS011;11438;52.044;8.716;2022-08-19T10:26:18;3.42;;;2.22;;
22543;SDS011;11438;52.044;8.716;2022-08-19T10:28:45;2.97;;;1.90;;
22543;SDS011;11438;52.044;8.716;2022-08-19T10:31:12;4.05;;;1.83;;
22543;SDS011;11438;52.044;8.716;2022-08-19T10:33:41;3.70;;;1.73;;
22543;SDS011;11438;52.044;8.716;2022-08-19T10:36:09;2.60;;;1.90;;
22543;SDS011;11438;52.044;8.716;2022-08-19T10:38:36;1.75;;;1.55;;
22543;SDS011;11438;52.044;8.716;2022-08-19T10:41:06;1.98;;;1.60;;
22543;SDS011;11438;52.044;8.716;2022-08-19T10:43:36;3.50;;;1.63;;
22543;SDS011;11438;52.044;8.716;2022-08-19T10:46:03;2.20;;;1.77;;
22543;SDS011;11438;52.044;8.716;2022-08-19T10:48:30;3.45;;;1.75;;
22543;SDS011;11438;52.044;8.716;2022-08-19T10:50:57;2.95;;;1.40;;
22543;SDS011;11438;52.044;8.716;2022-08-19T10:53:41;2.47;;;1.77;;
22543;SDS011;11438;52.044;8.716;2022-08-19T10:56:07;2.83;;;1.70;;
22543;SDS011;11438;52.044;8.716;2022-08-19T10:58:51;2.60;;;1.77;;
22543;SDS011;11438;52.044;8.716;2022-08-19T11:01:16;3.22;;;1.83;;
22543;SDS011;11438;52.044;8.716;2022-08-19T11:03:42;1.90;;;1.70;;
22543;SDS011;11438;52.044;8.716;2022-08-19T11:06:08;3.88;;;1.80;;
22543;SDS011;11438;52.044;8.716;2022-08-19T11:08:34;2.45;;;1.80;;
22543;SDS011;11438;52.044;8.716;2022-08-19T11:11:02;3.67;;;1.75;;
22543;SDS011;11438;52.044;8.716;2022-08-19T11:13:36;2.33;;;1.80;;
22543;SDS011;11438;52.044;8.716;2022-08-19T11:16:11;2.72;;;1.70;;
22543;SDS011;11438;52.044;8.716;2022-08-19T11:18:44;3.17;;;1.90;;
22543;SDS011;11438;52.044;8.716;2022-08-19T11:21:22;2.40;;;1.70;;
22543;SDS011;11438;52.044;8.716;2022-08-19T11:23:50;2.17;;;1.65;;
22543;SDS011;11438;52.044;8.716;2022-08-19T11:26:18;2.42;;;1.48;;
22543;SDS011;11438;52.044;8.716;2022-08-19T11:28:45;3.17;;;1.80;;
22543;SDS011;11438;52.044;8.716;2022-08-19T11:31:11;2.10;;;1.60;;
22543;SDS011;11438;52.044;8.716;2022-08-19T11:33:42;2.10;;;1.60;;
22543;SDS011;11438;52.044;8.716;2022-08-19T11:36:08;3.35;;;1.95;;
22543;SDS011;11438;52.044;8.716;2022-08-19T11:38:34;3.38;;;1.58;;
22543;SDS011;11438;52.044;8.716;2022-08-19T11:41:02;2.45;;;1.70;;
22543;SDS011;11438;52.044;8.716;2022-08-19T11:43:29;1.95;;;1.75;;
22543;SDS011;11438;52.044;8.716;2022-08-19T11:45:56;3.85;;;1.58;;
22543;SDS011;11438;52.044;8.716;2022-08-19T11:48:22;1.48;;;1.38;;
22543;SDS011;11438;52.044;8.716;2022-08-19T11:50:48;2.00;;;1.55;;
22543;SDS011;11438;52.044;8.716;2022-08-19T11:53:14;2.85;;;1.85;;
22543;SDS011;11438;52.044;8.716;2022-08-19T11:55:41;1.95;;;1.60;;
22543;SDS011;11438;52.044;8.716;2022-08-19T11:58:07;1.70;;;1.40;;
22543;SDS011;11438;52.044;8.716;2022-08-19T12:00:34;3.08;;;1.48;;
22543;SDS011;11438;52.044;8.716;2022-08-19T12:03:01;2.58;;;1.45;;
22543;SDS011;11438;52.044;8.716;2022-08-19T12:05:27;1.95;;;1.40;;
22543;SDS011;11438;52.044;8.716;2022-08-19T12:07:53;2.83;;;1.40;;
22543;SDS011;11438;52.044;8.716;2022-08-19T12:10:19;1.80;;;1.20;;
22543;SDS011;11438;52.044;8.716;2022-08-19T12:12:46;1.90;;;1.30;;
22543;SDS011;11438;52.044;8.716;2022-08-19T12:15:11;1.67;;;1.10;;
22543;SDS011;11438;52.044;8.716;2022-08-19T12:17:39;2.17;;;1.60;;
22543;SDS011;11438;52.044;8.716;2022-08-19T12:20:05;2.92;;;1.60;;
22543;SDS011;11438;52.044;8.716;2022-08-19T12:22:32;1.70;;;1.40;;
22543;SDS011;11438;52.044;8.716;2022-08-19T12:24:57;1.63;;;1.45;;
22543;SDS011;11438;52.044;8.716;2022-08-19T12:27:23;2.15;;;1.60;;
22543;SDS011;11438;52.044;8.716;2022-08-19T12:29:48;2.72;;;1.60;;
22543;SDS011;11438;52.044;8.716;2022-08-19T12:32:14;2.13;;;1.50;;
22543;SDS011;11438;52.044;8.716;2022-08-19T12:34:41;3.03;;;1.45;;
22543;SDS011;11438;52.044;8.716;2022-08-19T12:37:07;2.45;;;1.83;;
22543;SDS011;11438;52.044;8.716;2022-08-19T12:39:37;1.83;;;1.25;;
22543;SDS011;11438;52.044;8.716;2022-08-19T12:42:04;2.97;;;1.60;;
22543;SDS011;11438;52.044;8.716;2022-08-19T12:44:30;2.33;;;1.60;;
22543;SDS011;11438;52.044;8.716;2022-08-19T12:46:56;2.45;;;1.50;;
22543;SDS011;11438;52.044;8.716;2022-08-19T12:49:22;2.50;;;1.35;;
22543;SDS011;11438;52.044;8.716;2022-08-19T12:51:48;2.67;;;1.40;;
22543;SDS011;11438;52.044;8.716;2022-08-19T12:54:14;3.78;;;1.50;;
22543;SDS011;11438;52.044;8.716;2022-08-19T12:56:39;1.80;;;1.23;;
22543;SDS011;11438;52.044;8.716;2022-08-19T12:59:07;2.22;;;1.48;;
22543;SDS011;11438;52.044;8.716;2022-08-19T13:01:33;2.72;;;1.40;;
22543;SDS011;11438;52.044;8.716;2022-08-19T13:03:59;4.00;;;1.75;;
22543;SDS011;11438;52.044;8.716;2022-08-19T13:06:25;2.25;;;1.60;;
22543;SDS011;11438;52.044;8.716;2022-08-19T13:08:51;1.95;;;1.52;;
22543;SDS011;11438;52.044;8.716;2022-08-19T13:11:18;2.97;;;1.30;;
22543;SDS011;11438;52.044;8.716;2022-08-19T13:13:47;2.75;;;1.80;;
22543;SDS011;11438;52.044;8.716;2022-08-19T13:16:13;2.38;;;1.38;;
22543;SDS011;11438;52.044;8.716;2022-08-19T13:18:40;2.33;;;1.70;;
22543;SDS011;11438;52.044;8.716;2022-08-19T13:21:09;3.00;;;1.50;;
22543;SDS011;11438;52.044;8.716;2022-08-19T13:23:37;2.25;;;1.65;;
22543;SDS011;11438;52.044;8.716;2022-08-19T13:26:04;2.47;;;1.58;;
22543;SDS011;11438;52.044;8.716;2022-08-19T13:28:31;2.38;;;1.38;;
22543;SDS011;11438;52.044;8.716;2022-08-19T13:31:24;1.55;;;1.42;;
22543;SDS011;11438;52.044;8.716;2022-08-19T13:34:10;1.70;;;1.45;;
22543;SDS011;11438;52.044;8.716;2022-08-19T13:36:36;2.10;;;1.80;;
22543;SDS011;11438;52.044;8.716;2022-08-19T13:39:03;1.65;;;1.42;;
22543;SDS011;11438;52.044;8.716;2022-08-19T13:41:29;3.38;;;1.70;;
22543;SDS011;11438;52.044;8.716;2022-08-19T13:43:55;1.80;;;1.38;;
22543;SDS011;11438;52.044;8.716;2022-08-19T13:46:21;2.78;;;1.75;;
22543;SDS011;11438;52.044;8.716;2022-08-19T13:48:47;2.30;;;1.75;;
22543;SDS011;11438;52.044;8.716;2022-08-19T13:51:13;1.83;;;1.50;;
22543;SDS011;11438;52.044;8.716;2022-08-19T13:53:41;2.13;;;1.60;;
22543;SDS011;11438;52.044;8.716;2022-08-19T13:56:08;3.13;;;1.58;;
22543;SDS011;11438;52.044;8.716;2022-08-19T13:58:35;1.95;;;1.60;;
22543;SDS011;11438;52.044;8.716;2022-08-19T14:01:02;2.45;;;1.67;;
22543;SDS011;11438;52.044;8.716;2022-08-19T14:03:29;1.88;;;1.60;;
22543;SDS011;11438;52.044;8.716;2022-08-19T14:05:56;1.85;;;1.60;;
22543;SDS011;11438;52.044;8.716;2022-08-19T14:08:21;2.60;;;1.50;;
22543;SDS011;11438;52.044;8.716;2022-08-19T14:10:48;2.58;;;1.67;;
22543;SDS011;11438;52.044;8.716;2022-08-19T14:13:15;2.17;;;1.52;;
22543;SDS011;11438;52.044;8.716;2022-08-19T14:15:42;2.28;;;1.65;;
22543;SDS011;11438;52.044;8.716;2022-08-19T14:18:08;4.20;;;1.88;;
22543;SDS011;11438;52.044;8.716;2022-08-19T14:20:35;1.90;;;1.40;;
22543;SDS011;11438;52.044;8.716;2022-08-19T14:23:00;2.15;;;1.58;;
22543;SDS011;11438;52.044;8.716;2022-08-19T14:25:28;2.60;;;1.67;;
22543;SDS011;11438;52.044;8.716;2022-08-19T14:27:55;2.42;;;1.73;;
22543;SDS011;11438;52.044;8.716;2022-08-19T14:30:25;1.90;;;1.70;;
22543;SDS011;11438;52.044;8.716;2022-08-19T14:32:53;1.90;;;1.73;;
22543;SDS011;11438;52.044;8.716;2022-08-19T14:35:19;2.75;;;1.42;;
22543;SDS011;11438;52.044;8.716;2022-08-19T14:37:49;2.22;;;1.60;;
22543;SDS011;11438;52.044;8.716;2022-08-19T14:40:16;1.85;;;1.52;;
22543;SDS011;11438;52.044;8.716;2022-08-19T14:42:45;3.15;;;1.55;;
22543;SDS011;11438;52.044;8.716;2022-08-19T14:45:13;1.73;;;1.50;;
22543;SDS011;11438;52.044;8.716;2022-08-19T14:47:38;3.50;;;1.50;;
22543;SDS011;11438;52.044;8.716;2022-08-19T14:50:08;1.88;;;1.60;;
22543;SDS011;11438;52.044;8.716;2022-08-19T14:52:35;2.30;;;1.50;;
22543;SDS011;11438;52.044;8.716;2022-08-19T14:55:01;2.95;;;1.60;;
22543;SDS011;11438;52.044;8.716;2022-08-19T14:57:27;1.70;;;1.50;;
22543;SDS011;11438;52.044;8.716;2022-08-19T14:59:52;1.67;;;1.42;;
22543;SDS011;11438;52.044;8.716;2022-08-19T15:02:18;2.47;;;1.40;;